UKHH/HRK METAR and TAF weather

Enter ICAO airport designator
Station Type Date Time Source
UKHH METAR 2020/07/12 05:00 UTC NOAA

UKHH 120500Z 12004MPS CAVOK 23/11 Q1016 R07/0///81 NOSIG


Station Type Date Time Source
UKHH Decoded METAR 2020/07/12 05:00 UTC NOAA

Kharkiv, Ukraine (UKHH) 49-58N 036-08E 155M
Jul 12, 2020 - 01:00 AM EDT / 2020.07.12 0500 UTC
Wind: from the ESE (120 degrees) at 9 MPH (8 KT):0
Visibility: greater than 7 mile(s):0
Temperature: 73 F (23 C)
Dew Point: 51 F (11 C)
Relative Humidity: 46%
Pressure (altimeter): 30.00 in. Hg (1016 hPa)
ob: UKHH 120500Z 12004MPS CAVOK 23/11 Q1016 R07/0///81 NOSIG
cycle: 5

Station Type Date Time Source
UKHH TAF 2020/07/12 06:24 UTC NOAA

TAF UKHH 120503Z 1206/1306 09005MPS 9999 SCT030 TX30/1213Z TN18/1302Z
TEMPO 1212/1218 05006G12MPS SCT033CB
TEMPO 1218/1306 2100 -SHRA BR BKN007 BKNO20CB PROB40
TEMPO 1218/1306 -TSRA BKN020CB

Example: see airport list